Terminal Aerodrome Forecast
Issued by NWS

Home | Current Version | Previous Version | Text Only | Print | Product List | Glossary On
Versions: 1 2 3 4 5 6 7 8 9 10 11 12 13
000
FTUS45 KGJT 241415 AAA
TAFTEX
TAF AMD
KTEX 241415Z 2414/2512 11007KT P6SM VCTS SCT050CB OVC100
     FM241600 10005KT P6SM VCSH SCT080 SCT100
     FM241800 27006KT P6SM SCT100
     FM241900 27007KT P6SM VCTS SCT050CB SCT100
     FM250200 06004KT P6SM SCT100
     FM250600 12004KT P6SM SCT180=

USA.gov is the U.S. government's official web portal to all federal, state and local government web resources and services.